createdAt,value
2022-10-20T00:00:41.059Z,8.20
2022-10-20T00:04:41.171Z,8.90
2022-10-20T00:08:41.903Z,9.10
2022-10-20T00:12:44.632Z,8.83
2022-10-20T00:16:44.777Z,9.43
2022-10-20T00:20:45.130Z,9.00
2022-10-20T00:24:45.773Z,9.07
2022-10-20T00:28:49.956Z,9.50
2022-10-20T00:32:50.892Z,9.60
2022-10-20T00:36:51.529Z,9.90
2022-10-20T00:40:51.701Z,9.17
2022-10-20T00:44:58.569Z,9.23
2022-10-20T00:49:04.301Z,9.73
2022-10-20T00:53:05.504Z,10.57
2022-10-20T00:57:06.273Z,11.23
2022-10-20T01:01:09.461Z,10.83
2022-10-20T01:05:11.596Z,11.30
2022-10-20T01:09:14.230Z,10.80
2022-10-20T01:13:28.188Z,10.03
2022-10-20T01:17:46.529Z,10.70
2022-10-20T01:22:20.616Z,10.10
2022-10-20T01:26:57.536Z,9.50
2022-10-20T01:31:04.810Z,10.43
2022-10-20T01:35:12.910Z,9.87
2022-10-20T01:39:21.918Z,10.10
2022-10-20T01:43:26.512Z,9.77
2022-10-20T01:47:33.093Z,9.80
2022-10-20T01:51:34.375Z,9.57
2022-10-20T01:55:35.095Z,9.03
2022-10-20T01:59:51.716Z,10.00
2022-10-20T02:03:59.327Z,9.63
2022-10-20T02:08:15.714Z,9.10
2022-10-20T02:12:22.220Z,10.07
2022-10-20T02:16:30.469Z,8.87
2022-10-20T02:20:34.948Z,9.87
2022-10-20T02:24:40.508Z,10.40
2022-10-20T02:28:45.998Z,10.03
2022-10-20T02:32:52.517Z,8.93
2022-10-20T02:37:00.725Z,9.30
2022-10-20T02:41:01.421Z,8.63
2022-10-20T02:45:01.470Z,9.10
2022-10-20T02:49:01.724Z,8.77
2022-10-20T02:53:04.556Z,9.07
2022-10-20T02:57:04.643Z,9.47
2022-10-20T03:01:04.925Z,10.00
2022-10-20T03:05:05.129Z,9.37
2022-10-20T03:09:08.328Z,10.23
2022-10-20T03:13:09.087Z,9.60
2022-10-20T03:17:09.132Z,10.00
2022-10-20T03:21:09.526Z,9.77
2022-10-20T03:25:12.569Z,14.10
2022-10-20T03:29:13.975Z,12.67
2022-10-20T03:33:14.036Z,12.43
2022-10-20T03:37:14.246Z,10.63
2022-10-20T03:41:17.074Z,9.63
2022-10-20T03:45:18.671Z,9.17
2022-10-20T03:49:19.077Z,9.50
2022-10-20T03:53:19.169Z,9.03
2022-10-20T03:57:22.579Z,9.93
2022-10-20T04:01:29.987Z,9.97
2022-10-20T04:05:30.162Z,10.43
2022-10-20T04:09:30.217Z,9.50
2022-10-20T04:13:32.950Z,9.17
2022-10-20T04:17:33.094Z,10.90
2022-10-20T04:21:33.333Z,10.20
2022-10-20T04:25:33.462Z,10.20
2022-10-20T04:29:36.269Z,11.03
2022-10-20T04:33:37.341Z,10.60
2022-10-20T04:37:37.759Z,11.13
2022-10-20T04:41:38.464Z,14.57
2022-10-20T04:45:41.251Z,14.57
2022-10-20T04:49:42.888Z,14.17
2022-10-20T04:53:43.568Z,15.13
2022-10-20T04:57:43.652Z,15.20
2022-10-20T05:01:46.399Z,16.07
2022-10-20T05:05:46.537Z,14.97
2022-10-20T05:09:46.596Z,13.70
2022-10-20T05:13:47.065Z,15.37
2022-10-20T05:17:49.967Z,17.00
2022-10-20T05:21:50.281Z,15.17
2022-10-20T05:25:50.569Z,17.40
2022-10-20T05:29:50.636Z,16.67
2022-10-20T05:33:56.562Z,14.67
2022-10-20T05:37:56.669Z,19.90
2022-10-20T05:41:56.701Z,18.80
2022-10-20T05:45:57.616Z,16.83
2022-10-20T05:50:00.528Z,16.97
2022-10-20T05:54:02.284Z,14.30
2022-10-20T05:58:02.400Z,15.40
2022-10-20T06:02:02.507Z,13.17
2022-10-20T06:06:06.454Z,12.80
2022-10-20T06:10:08.121Z,11.90
2022-10-20T06:14:08.274Z,11.60
2022-10-20T06:18:08.760Z,16.63
2022-10-20T06:22:11.574Z,14.00
2022-10-20T06:26:17.483Z,13.40
2022-10-20T06:30:17.746Z,15.67
2022-10-20T06:34:27.947Z,15.67
2022-10-20T06:38:40.332Z,13.53
2022-10-20T06:47:16.312Z,12.10
2022-10-20T06:51:25.110Z,11.77
2022-10-20T06:55:40.449Z,11.83
2022-10-20T06:59:50.785Z,11.47
2022-10-20T07:03:53.263Z,11.50
2022-10-20T07:07:56.095Z,12.13
2022-10-20T07:11:58.802Z,11.70
2022-10-20T07:16:00.044Z,11.27
2022-10-20T07:20:00.270Z,11.67
2022-10-20T07:24:03.481Z,11.40
2022-10-20T07:28:06.404Z,11.90
2022-10-20T07:32:07.067Z,10.27
2022-10-20T07:36:16.237Z,9.97
2022-10-20T07:40:16.542Z,8.10
2022-10-20T07:44:20.187Z,7.67
2022-10-20T07:48:20.278Z,7.70
2022-10-20T07:52:20.522Z,7.67
2022-10-20T07:56:20.944Z,7.50
2022-10-20T08:00:24.059Z,7.00
2022-10-20T08:04:24.176Z,6.83
2022-10-20T08:08:24.344Z,7.00
2022-10-20T08:12:24.410Z,8.40
2022-10-20T08:16:30.030Z,7.33
2022-10-20T08:20:33.072Z,7.63
2022-10-20T08:24:33.994Z,8.27
2022-10-20T08:28:34.093Z,7.30
2022-10-20T08:32:37.244Z,8.07
2022-10-20T08:36:37.578Z,7.00
2022-10-20T08:40:43.937Z,7.00
2022-10-20T08:44:48.760Z,7.70
2022-10-20T08:48:52.957Z,6.60
2022-10-20T08:52:59.040Z,6.37
2022-10-20T08:56:59.315Z,6.67
2022-10-20T09:01:02.663Z,6.50
2022-10-20T09:05:09.356Z,6.20
2022-10-20T09:09:10.214Z,6.37
2022-10-20T09:13:23.818Z,5.93
2022-10-20T09:17:24.001Z,6.20
2022-10-20T09:21:27.654Z,5.93
2022-10-20T09:25:29.906Z,6.40
2022-10-20T09:29:40.901Z,6.67
2022-10-20T09:33:42.193Z,6.13
2022-10-20T09:37:47.221Z,5.40
2022-10-20T09:41:47.543Z,5.10
2022-10-20T09:45:57.298Z,5.30
2022-10-20T09:50:02.743Z,5.70
2022-10-20T09:54:09.450Z,4.97
2022-10-20T09:58:17.830Z,5.28
2022-10-20T10:02:35.743Z,5.03
2022-10-20T10:06:46.305Z,5.05
2022-10-20T10:11:05.998Z,4.85
2022-10-20T10:15:30.574Z,4.50
2022-10-20T10:25:21.570Z,4.50
2022-10-20T10:29:52.522Z,4.60
2022-10-20T10:35:17.433Z,4.70
2022-10-20T10:39:43.837Z,4.47
2022-10-20T10:44:16.781Z,4.78
2022-10-20T10:49:43.271Z,4.63
2022-10-20T10:54:19.940Z,4.30
2022-10-20T11:04:25.232Z,4.70
2022-10-20T11:08:58.956Z,4.40
2022-10-20T11:13:23.062Z,4.38
2022-10-20T11:17:45.515Z,4.25
2022-10-20T11:22:07.631Z,4.30
2022-10-20T11:26:28.238Z,3.92
2022-10-20T11:30:30.243Z,4.15
2022-10-20T11:34:39.153Z,3.70
2022-10-20T11:38:49.798Z,4.07
2022-10-20T11:43:01.786Z,3.58
2022-10-20T11:47:08.955Z,3.60
2022-10-20T11:51:38.872Z,3.20
2022-10-20T11:55:58.464Z,3.10
2022-10-20T12:00:29.613Z,3.42
2022-10-20T12:05:23.034Z,3.10
2022-10-20T12:09:55.424Z,3.20
2022-10-20T12:14:10.677Z,3.08
2022-10-20T12:18:27.153Z,3.10
2022-10-20T12:22:45.383Z,3.08
2022-10-20T12:27:21.278Z,3.10
2022-10-20T12:31:25.710Z,3.10
2022-10-20T12:36:17.742Z,3.30
2022-10-20T12:40:31.147Z,3.00
2022-10-20T12:44:35.104Z,3.00
2022-10-20T12:48:46.131Z,3.20
2022-10-20T12:52:47.023Z,3.03
2022-10-20T12:56:48.053Z,3.10
2022-10-20T13:01:11.032Z,3.20
2022-10-20T13:05:47.592Z,3.10
2022-10-20T13:10:01.711Z,3.10
2022-10-20T13:14:24.917Z,3.20
2022-10-20T13:18:31.437Z,3.17
2022-10-20T13:22:49.314Z,3.25
2022-10-20T13:26:56.318Z,3.20
2022-10-20T13:31:20.708Z,3.30
2022-10-20T13:35:29.757Z,3.70
2022-10-20T13:39:49.666Z,3.70
2022-10-20T13:44:04.851Z,3.55
2022-10-20T13:48:29.394Z,3.40
2022-10-20T13:52:35.075Z,3.20
2022-10-20T13:56:45.125Z,3.15
2022-10-20T14:01:02.242Z,3.53
2022-10-20T14:05:09.083Z,3.45
2022-10-20T14:09:18.424Z,3.28
2022-10-20T14:13:24.665Z,4.22
2022-10-20T14:17:27.248Z,3.88
2022-10-20T14:21:28.807Z,3.50
2022-10-20T14:25:31.560Z,3.50
2022-10-20T14:29:39.404Z,4.07
2022-10-20T14:33:46.245Z,3.30
2022-10-20T14:37:55.426Z,4.30
2022-10-20T14:41:59.965Z,4.15
2022-10-20T14:46:05.638Z,4.45
2022-10-20T14:50:08.142Z,4.75
2022-10-20T14:54:30.810Z,4.80
2022-10-20T14:58:41.617Z,4.70
2022-10-20T15:02:45.928Z,4.50
2022-10-20T15:06:46.986Z,4.25
2022-10-20T15:10:47.792Z,4.28
2022-10-20T15:14:51.781Z,6.07
2022-10-20T15:19:16.041Z,4.40
2022-10-20T15:23:18.781Z,4.95
2022-10-20T15:27:20.921Z,4.57
2022-10-20T15:31:25.706Z,5.72
2022-10-20T15:35:30.960Z,6.03
2022-10-20T15:39:31.038Z,6.50
2022-10-20T15:43:31.106Z,6.47
2022-10-20T15:47:31.285Z,6.22
2022-10-20T15:51:39.916Z,6.20
2022-10-20T15:55:45.249Z,6.00
2022-10-20T15:59:45.324Z,7.07
2022-10-20T16:03:45.987Z,5.95
2022-10-20T16:07:48.840Z,5.47
2022-10-20T16:11:49.118Z,6.00
2022-10-20T16:15:49.226Z,4.82
2022-10-20T16:19:49.404Z,4.37
2022-10-20T16:23:52.046Z,4.63
2022-10-20T16:27:52.158Z,5.03
2022-10-20T16:31:52.271Z,5.20
2022-10-20T16:35:52.338Z,6.13
2022-10-20T16:39:55.313Z,5.40
2022-10-20T16:43:58.855Z,8.97
2022-10-20T16:48:00.991Z,7.70
2022-10-20T16:52:01.790Z,6.10
2022-10-20T16:56:05.156Z,10.17
2022-10-20T17:00:05.692Z,14.27
2022-10-20T17:04:06.625Z,5.73
2022-10-20T17:08:07.337Z,11.60
2022-10-20T17:12:10.189Z,6.53
2022-10-20T17:16:13.559Z,6.22
2022-10-20T17:20:14.666Z,7.13
2022-10-20T17:24:16.062Z,8.20
2022-10-20T17:28:19.332Z,9.57
2022-10-20T17:32:19.496Z,8.90
2022-10-20T17:36:25.883Z,8.60
2022-10-20T17:40:26.322Z,7.97
2022-10-20T17:44:29.329Z,7.40
2022-10-20T17:48:29.814Z,15.80
2022-10-20T17:52:32.250Z,22.73
2022-10-20T17:56:40.128Z,10.20
2022-10-20T18:00:56.104Z,7.63
2022-10-20T18:04:57.562Z,7.73
2022-10-20T18:08:59.504Z,7.97
2022-10-20T18:13:00.007Z,5.73
2022-10-20T18:17:02.839Z,5.33
2022-10-20T18:21:03.551Z,5.13
2022-10-20T18:25:05.222Z,5.27
2022-10-20T18:29:07.596Z,5.13
2022-10-20T18:33:10.894Z,4.80
2022-10-20T18:37:15.444Z,4.77
2022-10-20T18:41:18.551Z,5.00
2022-10-20T18:45:21.363Z,13.07
2022-10-20T18:49:27.214Z,13.80
2022-10-20T18:53:28.483Z,12.17
2022-10-20T18:57:28.724Z,6.53
2022-10-20T19:01:31.617Z,23.60
2022-10-20T19:05:36.898Z,17.27
2022-10-20T19:09:37.429Z,11.63
2022-10-20T19:13:37.681Z,9.50
2022-10-20T19:17:37.927Z,10.73
2022-10-20T19:21:40.793Z,8.50
2022-10-20T19:25:41.617Z,6.43
2022-10-20T19:29:41.906Z,7.53
2022-10-20T19:33:42.249Z,6.87
2022-10-20T19:37:44.945Z,7.47
2022-10-20T19:41:45.488Z,8.03
2022-10-20T19:45:49.076Z,10.10
2022-10-20T19:49:50.028Z,8.10
2022-10-20T19:53:53.308Z,8.53
2022-10-20T19:57:53.629Z,7.50
2022-10-20T20:01:53.758Z,7.80
2022-10-20T20:06:01.118Z,8.67
2022-10-20T20:10:03.878Z,9.17
2022-10-20T20:14:07.201Z,9.43
2022-10-20T20:18:11.044Z,8.23
2022-10-20T20:22:13.877Z,8.17
2022-10-20T20:26:16.844Z,7.57
2022-10-20T20:30:17.151Z,7.30
2022-10-20T20:34:18.164Z,6.00
2022-10-20T20:38:18.210Z,6.43
2022-10-20T20:42:21.050Z,7.87
2022-10-20T20:46:23.984Z,8.57
2022-10-20T20:50:24.123Z,6.90
2022-10-20T20:54:26.229Z,8.80
2022-10-20T20:58:32.299Z,7.73
2022-10-20T21:02:32.368Z,7.50
2022-10-20T21:06:56.646Z,9.10
2022-10-20T21:10:54.290Z,7.53
2022-10-20T21:14:57.203Z,7.63
2022-10-20T21:19:00.280Z,7.37
2022-10-20T21:23:00.388Z,7.77
2022-10-20T21:27:00.559Z,7.53
2022-10-20T21:31:03.702Z,7.17
2022-10-20T21:35:03.801Z,8.20
2022-10-20T21:39:05.126Z,7.50
2022-10-20T21:43:08.905Z,8.17
2022-10-20T21:47:11.691Z,7.43
2022-10-20T21:51:15.198Z,9.47
2022-10-20T21:55:15.283Z,9.03
2022-10-20T21:59:21.590Z,9.30
2022-10-20T22:03:25.567Z,9.13
2022-10-20T22:07:26.171Z,10.00
2022-10-20T22:11:30.021Z,8.20
2022-10-20T22:15:30.161Z,11.63
2022-10-20T22:19:32.911Z,21.77
2022-10-20T22:23:33.154Z,18.83
2022-10-20T22:27:42.433Z,6.50
2022-10-20T22:31:46.076Z,6.30
2022-10-20T22:35:49.053Z,5.83
2022-10-20T22:39:49.101Z,6.00
2022-10-20T22:43:49.680Z,6.27
2022-10-20T22:47:49.823Z,6.40
2022-10-20T22:51:52.515Z,8.80
2022-10-20T22:55:53.362Z,21.50
2022-10-20T22:59:55.148Z,32.27
2022-10-20T23:03:55.597Z,25.17
2022-10-20T23:07:58.346Z,27.97
2022-10-20T23:11:58.756Z,24.40
2022-10-20T23:15:58.831Z,23.70
2022-10-20T23:19:58.969Z,25.47
2022-10-20T23:24:01.646Z,24.87
2022-10-20T23:28:01.699Z,23.73
2022-10-20T23:32:01.902Z,18.73
2022-10-20T23:36:02.062Z,13.77
2022-10-20T23:40:07.767Z,12.43
2022-10-20T23:44:08.227Z,11.23
2022-10-20T23:48:08.578Z,20.33
2022-10-20T23:52:08.923Z,20.60
2022-10-20T23:56:11.831Z,15.87
